Time;durP1;ratioP1;P1;durP2;ratioP2;P2;SDS_P1;SDS_P2;PMS_P1;PMS_P2;Temp;Humidity;BMP_temperature;BMP_pressure;BME280_temperature;BME280_humidity;BME280_pressure;Samples;Min_cycle;Max_cycle;Signal;HPM_P1;HPM_P2
2021/03/27 00:02:23;;;;;;;16.40;11.07;;;;;;;;;;5096284;28;20966;-60
2021/03/27 00:05:10;;;;;;;13.33;11.33;;;;;;;;;;5096163;28;20570;-60
2021/03/27 00:07:42;;;;;;;13.15;10.90;;;;;;;;;;5094729;28;20460;-60
2021/03/27 00:10:11;;;;;;;15.02;12.48;;;;;;;;;;5094495;28;20185;-60
2021/03/27 00:12:40;;;;;;;12.93;10.88;;;;;;;;;;5093808;28;20274;-60
2021/03/27 00:15:15;;;;;;;15.52;11.40;;;;;;;;;;5093734;28;20690;-61
2021/03/27 00:17:46;;;;;;;15.07;11.80;;;;;;;;;;5093580;28;20193;-61
2021/03/27 00:20:15;;;;;;;14.82;10.77;;;;;;;;;;5093635;28;20255;-61
2021/03/27 00:22:45;;;;;;;13.73;11.70;;;;;;;;;;5093837;28;20206;-60
2021/03/27 00:25:16;;;;;;;15.25;11.13;;;;;;;;;;5097864;28;20465;-61
2021/03/27 00:27:44;;;;;;;16.90;11.27;;;;;;;;;;5097678;28;20201;-59
2021/03/27 00:30:13;;;;;;;13.07;11.05;;;;;;;;;;5098274;28;20443;-61
2021/03/27 00:32:42;;;;;;;16.60;11.30;;;;;;;;;;5097674;28;20198;-60
2021/03/27 00:35:12;;;;;;;13.00;10.48;;;;;;;;;;5097576;28;20220;-60
2021/03/27 00:37:39;;;;;;;14.27;10.80;;;;;;;;;;5097170;28;20206;-59
2021/03/27 00:40:09;;;;;;;13.32;10.80;;;;;;;;;;5097422;28;20197;-61
2021/03/27 00:42:37;;;;;;;15.23;10.77;;;;;;;;;;5097119;28;20202;-61
2021/03/27 00:45:07;;;;;;;13.77;9.80;;;;;;;;;;5097128;28;20355;-59
2021/03/27 00:47:35;;;;;;;16.40;11.32;;;;;;;;;;5097228;28;20254;-60
2021/03/27 00:50:05;;;;;;;14.60;12.23;;;;;;;;;;5097091;28;20224;-61
2021/03/27 00:52:36;;;;;;;16.10;10.95;;;;;;;;;;5097284;28;20191;-59
2021/03/27 00:55:05;;;;;;;11.35;10.05;;;;;;;;;;5097543;28;20237;-60
2021/03/27 00:57:33;;;;;;;12.90;10.07;;;;;;;;;;5097016;28;20274;-60
2021/03/27 01:00:08;;;;;;;11.60;9.75;;;;;;;;;;5097024;28;20205;-60
2021/03/27 01:02:35;;;;;;;11.82;10.20;;;;;;;;;;5096872;28;20185;-60
2021/03/27 01:05:04;;;;;;;14.90;10.57;;;;;;;;;;5099367;28;20640;-60
2021/03/27 01:07:32;;;;;;;14.90;10.68;;;;;;;;;;5099301;28;20224;-59
2021/03/27 01:10:02;;;;;;;14.52;9.70;;;;;;;;;;5103869;28;20682;-59
2021/03/27 01:12:31;;;;;;;11.35;9.23;;;;;;;;;;5104408;28;20218;-61
2021/03/27 01:15:00;;;;;;;11.80;9.77;;;;;;;;;;5097098;28;20224;-60
2021/03/27 01:17:29;;;;;;;9.50;8.02;;;;;;;;;;5096608;28;20208;-59
2021/03/27 01:19:57;;;;;;;11.02;9.00;;;;;;;;;;5096532;28;20207;-59
2021/03/27 01:22:25;;;;;;;9.65;8.60;;;;;;;;;;5096479;28;20207;-59
2021/03/27 01:24:56;;;;;;;11.27;8.75;;;;;;;;;;5096473;28;20223;-60
2021/03/27 01:27:24;;;;;;;9.63;8.05;;;;;;;;;;5114116;28;20180;-60
2021/03/27 01:29:57;;;;;;;11.18;8.25;;;;;;;;;;5106266;28;20216;-59
2021/03/27 01:32:28;;;;;;;8.68;7.28;;;;;;;;;;5097663;28;20196;-60
2021/03/27 01:35:00;;;;;;;11.00;8.52;;;;;;;;;;5098258;28;20554;-59
2021/03/27 01:37:29;;;;;;;8.75;7.75;;;;;;;;;;5096285;28;20213;-60
2021/03/27 01:39:59;;;;;;;8.90;7.15;;;;;;;;;;5096474;28;20265;-60
2021/03/27 01:42:32;;;;;;;10.38;7.40;;;;;;;;;;5098491;28;20193;-60
2021/03/27 01:45:17;;;;;;;8.40;7.60;;;;;;;;;;5096363;28;20224;-61
2021/03/27 01:47:46;;;;;;;12.15;7.35;;;;;;;;;;5095810;28;20203;-59
2021/03/27 01:50:21;;;;;;;9.75;8.20;;;;;;;;;;5096328;28;20208;-60
2021/03/27 01:52:56;;;;;;;12.63;7.75;;;;;;;;;;5095977;28;20196;-59
2021/03/27 01:55:30;;;;;;;8.00;7.20;;;;;;;;;;5095625;28;20597;-59
2021/03/27 01:58:01;;;;;;;10.05;7.30;;;;;;;;;;5096040;28;20181;-61
2021/03/27 02:00:31;;;;;;;9.23;7.13;;;;;;;;;;5095782;28;20264;-60
2021/03/27 02:03:01;;;;;;;8.50;6.88;;;;;;;;;;5095543;28;20202;-60
2021/03/27 02:05:30;;;;;;;8.35;6.90;;;;;;;;;;5095595;28;20228;-60
2021/03/27 02:07:59;;;;;;;12.25;7.75;;;;;;;;;;5095663;28;20618;-59
2021/03/27 02:10:30;;;;;;;8.48;6.82;;;;;;;;;;5095816;28;20200;-61
2021/03/27 02:12:59;;;;;;;9.70;7.95;;;;;;;;;;5095768;28;20182;-60
2021/03/27 02:15:38;;;;;;;12.70;8.82;;;;;;;;;;5095801;28;20226;-61
2021/03/27 02:18:10;;;;;;;9.93;7.18;;;;;;;;;;5095588;28;20661;-60
2021/03/27 02:20:49;;;;;;;9.50;7.45;;;;;;;;;;5095674;28;20185;-61
2021/03/27 02:23:18;;;;;;;10.20;6.88;;;;;;;;;;5095950;28;20537;-59
2021/03/27 02:26:04;;;;;;;8.50;6.70;;;;;;;;;;5095301;28;20225;-60
2021/03/27 02:28:40;;;;;;;7.38;6.53;;;;;;;;;;5096045;28;20270;-60
2021/03/27 02:31:11;;;;;;;7.65;6.43;;;;;;;;;;5096111;28;20190;-60
2021/03/27 02:33:40;;;;;;;8.00;6.20;;;;;;;;;;5095716;28;20181;-61
2021/03/27 02:36:14;;;;;;;7.60;6.88;;;;;;;;;;5095286;28;20198;-60
2021/03/27 02:38:53;;;;;;;6.80;6.07;;;;;;;;;;5094834;28;20185;-59
2021/03/27 02:41:29;;;;;;;6.88;6.18;;;;;;;;;;5095310;28;20597;-59
2021/03/27 02:43:58;;;;;;;8.20;5.88;;;;;;;;;;5094912;28;20227;-60
2021/03/27 02:46:29;;;;;;;8.43;6.43;;;;;;;;;;5093537;28;20198;-60
2021/03/27 02:48:59;;;;;;;8.63;6.13;;;;;;;;;;5094655;28;20227;-60
2021/03/27 02:51:27;;;;;;;6.20;5.60;;;;;;;;;;5094451;28;20189;-59
2021/03/27 02:54:06;;;;;;;7.03;5.97;;;;;;;;;;5094413;28;20223;-61
2021/03/27 02:56:38;;;;;;;8.07;6.37;;;;;;;;;;5094879;28;20552;-59
2021/03/27 02:59:18;;;;;;;8.27;5.78;;;;;;;;;;5094842;28;20929;-60
2021/03/27 03:01:49;;;;;;;5.10;4.60;;;;;;;;;;5095262;28;20191;-60
2021/03/27 03:04:19;;;;;;;5.55;4.40;;;;;;;;;;5096325;28;20837;-60
2021/03/27 03:06:49;;;;;;;5.10;4.38;;;;;;;;;;5098550;28;20214;-59
2021/03/27 03:09:19;;;;;;;6.55;4.90;;;;;;;;;;5100661;28;20222;-60
2021/03/27 03:11:49;;;;;;;6.50;4.72;;;;;;;;;;5096051;28;20199;-60
2021/03/27 03:14:18;;;;;;;4.97;4.47;;;;;;;;;;5095834;28;20245;-60
2021/03/27 03:16:47;;;;;;;6.30;4.93;;;;;;;;;;5095768;28;20201;-60
2021/03/27 03:19:18;;;;;;;5.22;4.03;;;;;;;;;;5096085;28;20815;-60
2021/03/27 03:21:47;;;;;;;7.88;5.63;;;;;;;;;;5095839;28;20194;-60
2021/03/27 03:24:18;;;;;;;7.72;5.53;;;;;;;;;;5096040;28;20287;-60
2021/03/27 03:27:08;;;;;;;6.87;5.83;;;;;;;;;;5096224;28;20636;-61
2021/03/27 03:29:40;;;;;;;7.60;5.85;;;;;;;;;;5096670;28;20471;-60
2021/03/27 03:32:11;;;;;;;9.90;5.95;;;;;;;;;;5096177;28;20180;-60
2021/03/27 03:34:44;;;;;;;9.68;6.03;;;;;;;;;;5096050;28;20219;-60
2021/03/27 03:37:16;;;;;;;7.43;6.32;;;;;;;;;;5095575;28;20525;-60
2021/03/27 03:39:51;;;;;;;8.55;6.40;;;;;;;;;;5095193;28;20191;-61
2021/03/27 03:42:49;;;;;;;7.70;6.32;;;;;;;;;;5094066;28;20553;-61
2021/03/27 03:45:20;;;;;;;6.13;5.10;;;;;;;;;;5093764;28;20712;-61
2021/03/27 03:47:51;;;;;;;5.68;5.07;;;;;;;;;;5094254;28;20236;-59
2021/03/27 03:50:26;;;;;;;6.95;5.20;;;;;;;;;;5095825;28;20768;-60
2021/03/27 03:53:09;;;;;;;4.47;4.07;;;;;;;;;;5096162;28;20314;-61
2021/03/27 03:55:39;;;;;;;5.93;4.78;;;;;;;;;;5095116;28;20731;-61
2021/03/27 03:58:21;;;;;;;5.78;3.25;;;;;;;;;;5095556;28;20637;-61
2021/03/27 04:00:52;;;;;;;5.35;2.70;;;;;;;;;;5095504;28;20193;-60
2021/03/27 04:03:27;;;;;;;4.07;2.88;;;;;;;;;;5094836;28;20188;-61
2021/03/27 04:07:58;;;;;;;2.95;1.75;;;;;;;;;;5113105;27;20536;-60
2021/03/27 04:10:26;;;;;;;1.80;1.70;;;;;;;;;;5113566;28;20266;-60
2021/03/27 04:12:56;;;;;;;1.50;1.40;;;;;;;;;;5113168;28;20247;-61
2021/03/27 04:15:25;;;;;;;1.95;1.67;;;;;;;;;;5113070;28;20216;-61
2021/03/27 04:17:58;;;;;;;1.90;1.70;;;;;;;;;;5112948;28;20272;-60
2021/03/27 04:20:27;;;;;;;1.80;1.70;;;;;;;;;;5111707;28;20622;-61
2021/03/27 04:22:58;;;;;;;2.00;1.80;;;;;;;;;;5111413;28;20553;-61
2021/03/27 04:25:28;;;;;;;2.17;1.95;;;;;;;;;;5112177;28;20216;-61
2021/03/27 04:27:58;;;;;;;2.00;1.80;;;;;;;;;;5110796;28;20618;-61
2021/03/27 04:30:29;;;;;;;2.13;1.80;;;;;;;;;;5111219;28;20188;-61
2021/03/27 04:32:58;;;;;;;2.40;1.92;;;;;;;;;;5111224;28;20203;-61
2021/03/27 04:35:28;;;;;;;4.53;2.00;;;;;;;;;;5110659;28;20602;-62
2021/03/27 04:38:05;;;;;;;1.45;1.35;;;;;;;;;;5111420;28;20225;-61
2021/03/27 04:40:37;;;;;;;1.58;1.48;;;;;;;;;;5111360;28;20230;-61
2021/03/27 04:43:06;;;;;;;2.13;2.03;;;;;;;;;;5127316;28;20184;-61
2021/03/27 04:45:38;;;;;;;1.80;1.35;;;;;;;;;;5115808;28;20695;-60
2021/03/27 04:48:12;;;;;;;1.73;1.60;;;;;;;;;;5110997;28;20200;-61
2021/03/27 04:50:43;;;;;;;2.75;1.50;;;;;;;;;;5111615;28;20195;-61
2021/03/27 04:53:15;;;;;;;3.30;1.67;;;;;;;;;;5111200;28;20237;-62
2021/03/27 04:55:45;;;;;;;1.83;1.45;;;;;;;;;;5110663;28;20630;-61
2021/03/27 04:58:30;;;;;;;2.42;2.22;;;;;;;;;;5111376;28;20188;-61
2021/03/27 05:01:01;;;;;;;3.00;2.00;;;;;;;;;;5110651;28;20737;-62
2021/03/27 05:03:28;;;;;;;2.30;2.10;;;;;;;;;;5110897;28;20191;-61
2021/03/27 05:05:58;;;;;;;3.40;2.65;;;;;;;;;;5110098;28;20231;-61
2021/03/27 05:08:37;;;;;;;2.55;2.35;;;;;;;;;;5110622;28;20203;-61
2021/03/27 05:11:13;;;;;;;3.05;2.80;;;;;;;;;;5110476;28;20194;-61
2021/03/27 05:13:42;;;;;;;2.72;2.53;;;;;;;;;;5109944;28;20197;-60
2021/03/27 05:16:12;;;;;;;3.22;2.80;;;;;;;;;;5109773;28;20208;-61
2021/03/27 05:18:43;;;;;;;3.58;3.17;;;;;;;;;;5099617;28;20225;-62
2021/03/27 05:21:15;;;;;;;3.58;3.10;;;;;;;;;;5096511;28;20204;-61
2021/03/27 05:23:49;;;;;;;3.05;2.75;;;;;;;;;;5096444;28;20253;-61
2021/03/27 05:26:20;;;;;;;3.88;3.47;;;;;;;;;;5096475;28;20214;-62
2021/03/27 05:29:13;;;;;;;3.83;3.42;;;;;;;;;;5096114;28;20184;-61
2021/03/27 05:31:44;;;;;;;4.07;3.50;;;;;;;;;;5096320;28;20196;-60
2021/03/27 05:34:23;;;;;;;3.75;3.42;;;;;;;;;;5095945;28;20646;-61
2021/03/27 05:37:14;;;;;;;4.28;3.88;;;;;;;;;;5096391;28;20176;-62
2021/03/27 05:39:45;;;;;;;4.93;4.10;;;;;;;;;;5095918;28;20188;-61
2021/03/27 05:42:25;;;;;;;3.63;3.22;;;;;;;;;;5095747;28;20606;-62
2021/03/27 05:45:19;;;;;;;3.90;3.33;;;;;;;;;;5096244;28;20223;-61
2021/03/27 05:48:07;;;;;;;3.28;2.90;;;;;;;;;;5096660;28;20212;-61
2021/03/27 05:50:49;;;;;;;3.90;3.55;;;;;;;;;;5096241;28;20187;-61
2021/03/27 05:53:48;;;;;;;4.47;3.75;;;;;;;;;;5062490;28;20235;-60
2021/03/27 05:56:30;;;;;;;4.00;3.60;;;;;;;;;;5095591;28;20187;-61
2021/03/27 05:59:06;;;;;;;3.72;3.38;;;;;;;;;;5095318;28;20569;-60
2021/03/27 06:01:48;;;;;;;4.55;4.15;;;;;;;;;;5095293;28;20530;-60
2021/03/27 06:04:30;;;;;;;4.30;3.88;;;;;;;;;;5095322;28;20223;-60
2021/03/27 06:07:24;;;;;;;5.15;4.65;;;;;;;;;;5095312;28;20604;-61
2021/03/27 06:10:10;;;;;;;4.97;4.28;;;;;;;;;;5095692;28;20184;-60
2021/03/27 06:12:48;;;;;;;5.55;4.85;;;;;;;;;;5095632;28;20210;-61
2021/03/27 06:15:34;;;;;;;5.20;4.65;;;;;;;;;;5095324;28;20268;-61
2021/03/27 06:18:21;;;;;;;5.45;4.95;;;;;;;;;;5095235;28;20229;-60
2021/03/27 06:20:52;;;;;;;7.63;4.97;;;;;;;;;;5069883;28;20196;-62
2021/03/27 06:23:29;;;;;;;6.60;4.82;;;;;;;;;;5095376;28;20242;-62
2021/03/27 06:26:08;;;;;;;6.30;5.45;;;;;;;;;;5103678;28;20223;-61
2021/03/27 06:28:52;;;;;;;7.35;5.57;;;;;;;;;;5107909;28;20555;-60
2021/03/27 06:31:24;;;;;;;9.23;6.20;;;;;;;;;;5108617;28;20192;-60
2021/03/27 06:34:06;;;;;;;7.43;6.25;;;;;;;;;;5107179;28;20189;-60
2021/03/27 06:36:48;;;;;;;6.35;5.75;;;;;;;;;;5104601;28;20195;-60
2021/03/27 06:39:36;;;;;;;7.18;6.10;;;;;;;;;;5104024;28;20184;-61
2021/03/27 06:42:17;;;;;;;7.55;5.75;;;;;;;;;;5070184;28;20567;-61
2021/03/27 06:44:51;;;;;;;6.80;4.93;;;;;;;;;;5095523;28;20220;-61
2021/03/27 06:47:26;;;;;;;5.80;5.28;;;;;;;;;;5101207;28;20574;-61
2021/03/27 06:50:04;;;;;;;5.07;4.40;;;;;;;;;;5096302;28;20184;-61
2021/03/27 06:52:43;;;;;;;6.78;4.78;;;;;;;;;;5094514;28;20191;-61
2021/03/27 06:55:37;;;;;;;4.70;3.85;;;;;;;;;;5094984;28;20226;-61
2021/03/27 06:58:21;;;;;;;5.30;3.80;;;;;;;;;;5095044;28;20553;-60
2021/03/27 07:00:53;;;;;;;3.88;3.42;;;;;;;;;;5094042;28;20184;-62
2021/03/27 07:03:50;;;;;;;4.30;3.17;;;;;;;;;;5094437;28;20207;-61
2021/03/27 07:06:33;;;;;;;3.67;3.35;;;;;;;;;;5094003;28;20220;-62
2021/03/27 07:09:08;;;;;;;5.40;3.55;;;;;;;;;;5094390;28;20195;-61
2021/03/27 07:11:40;;;;;;;6.13;3.95;;;;;;;;;;5094212;28;20188;-61
2021/03/27 07:14:28;;;;;;;6.20;3.63;;;;;;;;;;5093969;28;20231;-60
2021/03/27 07:17:05;;;;;;;5.50;3.20;;;;;;;;;;5094094;28;20229;-60
2021/03/27 07:19:51;;;;;;;6.68;3.20;;;;;;;;;;5094290;28;20184;-61
2021/03/27 07:22:30;;;;;;;5.03;3.97;;;;;;;;;;5094302;28;20580;-61
2021/03/27 07:25:14;;;;;;;3.55;3.25;;;;;;;;;;5094013;28;20220;-60
2021/03/27 07:28:03;;;;;;;4.97;3.83;;;;;;;;;;5063268;28;20285;-60
2021/03/27 07:30:34;;;;;;;3.78;3.22;;;;;;;;;;5094318;28;20265;-60
2021/03/27 07:33:24;;;;;;;7.90;3.97;;;;;;;;;;5094145;28;20672;-61
2021/03/27 07:36:20;;;;;;;8.85;4.40;;;;;;;;;;5094611;28;20219;-61
2021/03/27 07:38:49;;;;;;;5.43;4.10;;;;;;;;;;5095979;28;20192;-61
2021/03/27 07:41:30;;;;;;;6.28;4.25;;;;;;;;;;5095053;28;20238;-61
2021/03/27 07:44:10;;;;;;;8.00;4.88;;;;;;;;;;5080958;28;20572;-61
2021/03/27 07:47:03;;;;;;;8.68;4.93;;;;;;;;;;5093684;28;20207;-60
2021/03/27 07:49:54;;;;;;;5.75;5.18;;;;;;;;;;5093411;28;20207;-61
2021/03/27 07:52:27;;;;;;;7.43;4.68;;;;;;;;;;5093645;28;20238;-61
2021/03/27 07:55:08;;;;;;;7.45;5.18;;;;;;;;;;5093566;28;20219;-60
2021/03/27 07:57:54;;;;;;;6.15;4.57;;;;;;;;;;5081926;28;20192;-61
2021/03/27 08:00:38;;;;;;;8.30;5.18;;;;;;;;;;5099590;28;20213;-62
2021/03/27 08:03:38;;;;;;;9.20;4.97;;;;;;;;;;5094492;28;20189;-61
2021/03/27 08:06:11;;;;;;;8.75;5.63;;;;;;;;;;5034215;28;20215;-62
2021/03/27 08:09:05;;;;;;;8.52;5.80;;;;;;;;;;5031090;28;20201;-61
2021/03/27 08:11:50;;;;;;;11.48;5.25;;;;;;;;;;5073508;28;20200;-61
2021/03/27 08:14:24;;;;;;;7.70;5.82;;;;;;;;;;5095586;28;20232;-62
2021/03/27 08:17:05;;;;;;;6.25;5.65;;;;;;;;;;5093124;28;20192;-61
2021/03/27 08:19:42;;;;;;;10.40;5.82;;;;;;;;;;5091764;28;20213;-62
2021/03/27 08:22:22;;;;;;;7.93;7.13;;;;;;;;;;5094129;28;20514;-60
2021/03/27 08:24:51;;;;;;;9.07;7.00;;;;;;;;;;5093315;28;20235;-60
2021/03/27 08:27:42;;;;;;;10.07;6.88;;;;;;;;;;5092836;28;20222;-61
2021/03/27 08:30:27;;;;;;;7.25;6.43;;;;;;;;;;5077777;28;20201;-61
2021/03/27 08:33:20;;;;;;;9.80;7.20;;;;;;;;;;5093062;28;20210;-61
2021/03/27 08:36:06;;;;;;;11.80;7.78;;;;;;;;;;5056805;28;20226;-61
2021/03/27 08:38:55;;;;;;;9.10;6.80;;;;;;;;;;5092906;28;20244;-60
2021/03/27 08:41:27;;;;;;;8.85;6.40;;;;;;;;;;5092715;28;20191;-61
2021/03/27 08:44:12;;;;;;;7.50;6.85;;;;;;;;;;5092303;28;20220;-62
2021/03/27 08:46:44;;;;;;;10.88;6.88;;;;;;;;;;5093477;28;20216;-61
2021/03/27 08:49:32;;;;;;;7.25;6.15;;;;;;;;;;5093382;28;20192;-62
2021/03/27 08:52:04;;;;;;;9.70;7.45;;;;;;;;;;5093868;28;20252;-61
2021/03/27 08:54:51;;;;;;;8.55;7.10;;;;;;;;;;5096099;28;20723;-61
2021/03/27 08:57:34;;;;;;;10.85;7.88;;;;;;;;;;5091991;28;20208;-61
2021/03/27 09:00:10;;;;;;;8.85;6.90;;;;;;;;;;5096706;28;20193;-61
2021/03/27 09:02:51;;;;;;;10.35;8.05;;;;;;;;;;5096733;28;20311;-61
2021/03/27 09:05:30;;;;;;;9.55;7.55;;;;;;;;;;5063488;28;20225;-62
2021/03/27 09:08:12;;;;;;;11.38;7.60;;;;;;;;;;5096785;28;20208;-61
2021/03/27 09:10:42;;;;;;;11.40;8.35;;;;;;;;;;5094362;28;20578;-61
2021/03/27 09:13:31;;;;;;;11.20;8.30;;;;;;;;;;5097031;28;20186;-62
2021/03/27 09:16:16;;;;;;;11.32;8.50;;;;;;;;;;5100106;28;20639;-60
2021/03/27 09:18:49;;;;;;;13.77;7.60;;;;;;;;;;5099440;28;20217;-62
2021/03/27 09:21:24;;;;;;;10.38;7.65;;;;;;;;;;5098263;28;20231;-61
2021/03/27 09:23:53;;;;;;;9.57;7.22;;;;;;;;;;5097736;28;20203;-61
2021/03/27 09:26:44;;;;;;;9.70;7.60;;;;;;;;;;5098730;28;20221;-62
2021/03/27 09:29:25;;;;;;;8.15;7.00;;;;;;;;;;5097573;28;20536;-61
2021/03/27 09:31:57;;;;;;;8.40;5.20;;;;;;;;;;5062463;28;20200;-60
2021/03/27 09:34:41;;;;;;;5.63;3.80;;;;;;;;;;5095924;28;20220;-62
2021/03/27 09:37:12;;;;;;;7.80;4.50;;;;;;;;;;5095651;28;20446;-60
2021/03/27 09:39:45;;;;;;;5.17;3.80;;;;;;;;;;5095950;28;20428;-62
2021/03/27 09:42:18;;;;;;;5.17;3.63;;;;;;;;;;5095873;28;20426;-61
2021/03/27 09:44:58;;;;;;;8.63;3.97;;;;;;;;;;5096134;28;20804;-61
2021/03/27 09:47:54;;;;;;;4.63;2.60;;;;;;;;;;5095512;28;20509;-61
2021/03/27 09:50:25;;;;;;;2.40;1.88;;;;;;;;;;5096391;28;20503;-59
2021/03/27 09:53:02;;;;;;;4.05;1.52;;;;;;;;;;5096650;28;20196;-60
2021/03/27 09:55:40;;;;;;;2.35;1.52;;;;;;;;;;5096351;28;20276;-61
2021/03/27 09:58:13;;;;;;;2.08;1.10;;;;;;;;;;5096440;28;20199;-61
2021/03/27 10:00:53;;;;;;;2.78;1.85;;;;;;;;;;5096396;28;20183;-60
2021/03/27 10:03:26;;;;;;;2.70;1.52;;;;;;;;;;5095778;28;20185;-62
2021/03/27 10:05:54;;;;;;;7.75;2.33;;;;;;;;;;5096433;28;20239;-61
2021/03/27 10:08:25;;;;;;;5.05;2.10;;;;;;;;;;5096825;28;20204;-61
2021/03/27 10:10:57;;;;;;;5.00;2.00;;;;;;;;;;5096665;28;20185;-62
2021/03/27 10:13:48;;;;;;;2.75;1.35;;;;;;;;;;5097189;28;20640;-61
2021/03/27 10:16:18;;;;;;;4.15;1.83;;;;;;;;;;5095791;28;20315;-61
2021/03/27 10:18:51;;;;;;;2.95;2.08;;;;;;;;;;5095900;28;20209;-61
2021/03/27 10:21:24;;;;;;;2.47;1.88;;;;;;;;;;5096829;28;20197;-61
2021/03/27 10:23:54;;;;;;;4.78;2.30;;;;;;;;;;5096411;28;20185;-60
2021/03/27 10:26:29;;;;;;;3.30;2.28;;;;;;;;;;5096329;28;20563;-61
2021/03/27 10:28:57;;;;;;;2.60;1.73;;;;;;;;;;5095564;28;20617;-60
2021/03/27 10:31:26;;;;;;;6.00;2.85;;;;;;;;;;5095146;28;20558;-60
2021/03/27 10:34:02;;;;;;;2.63;1.95;;;;;;;;;;5095840;28;20213;-61
2021/03/27 10:36:43;;;;;;;2.85;2.30;;;;;;;;;;5096003;28;20183;-61
2021/03/27 10:39:24;;;;;;;3.58;1.80;;;;;;;;;;5096104;28;20192;-61
2021/03/27 10:41:58;;;;;;;2.90;2.05;;;;;;;;;;5096508;28;20624;-60
2021/03/27 10:44:30;;;;;;;6.40;2.70;;;;;;;;;;5095699;28;20235;-61
2021/03/27 10:47:00;;;;;;;3.85;2.45;;;;;;;;;;5095976;28;20215;-62
2021/03/27 10:49:31;;;;;;;3.67;2.08;;;;;;;;;;5094921;28;20707;-62
2021/03/27 10:52:14;;;;;;;3.70;2.08;;;;;;;;;;5094864;28;20561;-61
2021/03/27 10:54:49;;;;;;;8.27;2.50;;;;;;;;;;5095141;28;20593;-62
2021/03/27 10:57:30;;;;;;;5.25;3.25;;;;;;;;;;5095016;28;20198;-61
2021/03/27 11:00:02;;;;;;;4.32;2.83;;;;;;;;;;5094872;28;20192;-62
2021/03/27 11:02:39;;;;;;;4.65;2.50;;;;;;;;;;5095048;28;20216;-60
2021/03/27 11:05:19;;;;;;;4.22;2.10;;;;;;;;;;5095528;28;20356;-61
2021/03/27 11:08:08;;;;;;;6.00;2.80;;;;;;;;;;5095034;28;20223;-62
2021/03/27 11:10:45;;;;;;;4.25;2.28;;;;;;;;;;5095216;28;20191;-61
2021/03/27 11:13:36;;;;;;;2.75;2.17;;;;;;;;;;5095708;28;20185;-61
2021/03/27 11:16:27;;;;;;;6.55;2.67;;;;;;;;;;5094760;28;20266;-61
2021/03/27 11:19:11;;;;;;;4.22;2.30;;;;;;;;;;5094693;28;20241;-61
2021/03/27 11:21:52;;;;;;;9.73;3.72;;;;;;;;;;5094317;28;20580;-61
2021/03/27 11:24:46;;;;;;;7.97;2.20;;;;;;;;;;5094997;28;20337;-61
2021/03/27 11:27:22;;;;;;;7.30;2.55;;;;;;;;;;5058254;28;20229;-61
2021/03/27 11:29:54;;;;;;;4.90;2.38;;;;;;;;;;5097145;28;20189;-62
2021/03/27 11:32:25;;;;;;;6.55;2.55;;;;;;;;;;5096079;28;20215;-62
2021/03/27 11:34:56;;;;;;;10.25;2.72;;;;;;;;;;5095492;28;20235;-62
2021/03/27 11:37:37;;;;;;;5.70;3.20;;;;;;;;;;5095369;28;20180;-61
2021/03/27 11:40:06;;;;;;;4.28;2.30;;;;;;;;;;5095081;28;20190;-61
2021/03/27 11:42:37;;;;;;;7.22;2.97;;;;;;;;;;5094505;28;20203;-60
2021/03/27 11:45:07;;;;;;;3.65;2.38;;;;;;;;;;5093880;28;20226;-62
2021/03/27 11:47:36;;;;;;;4.68;2.50;;;;;;;;;;5094856;28;20580;-62
2021/03/27 11:50:19;;;;;;;8.52;3.03;;;;;;;;;;5093894;28;20203;-61
2021/03/27 11:52:50;;;;;;;6.78;2.80;;;;;;;;;;5097095;28;20187;-66
2021/03/27 11:55:21;;;;;;;8.70;2.28;;;;;;;;;;5102972;28;20587;-62
2021/03/27 11:57:49;;;;;;;6.53;2.20;;;;;;;;;;5101294;28;20183;-62
2021/03/27 12:00:48;;;;;;;5.20;2.80;;;;;;;;;;5100359;28;20208;-62
2021/03/27 12:03:29;;;;;;;6.18;2.40;;;;;;;;;;5098579;28;20187;-61
2021/03/27 12:06:00;;;;;;;3.72;2.10;;;;;;;;;;5095408;28;20224;-62
2021/03/27 12:08:32;;;;;;;6.38;1.85;;;;;;;;;;5094797;28;20269;-61
2021/03/27 12:11:03;;;;;;;6.05;2.30;;;;;;;;;;5094080;28;20188;-62
2021/03/27 12:13:33;;;;;;;5.07;2.40;;;;;;;;;;5093452;28;20530;-62
2021/03/27 12:16:07;;;;;;;5.95;2.05;;;;;;;;;;5093827;28;20821;-62
2021/03/27 12:18:52;;;;;;;3.03;2.20;;;;;;;;;;5093590;28;20613;-62
2021/03/27 12:21:20;;;;;;;3.43;2.20;;;;;;;;;;5093996;28;20437;-60
2021/03/27 12:23:50;;;;;;;4.25;2.25;;;;;;;;;;5094538;28;20525;-61
2021/03/27 12:26:21;;;;;;;3.10;1.65;;;;;;;;;;5095328;28;20273;-60
2021/03/27 12:28:56;;;;;;;3.77;1.77;;;;;;;;;;5096955;28;20540;-62
2021/03/27 12:31:31;;;;;;;5.00;2.60;;;;;;;;;;5100680;28;20874;-61
2021/03/27 12:34:03;;;;;;;4.43;1.83;;;;;;;;;;5102571;28;20920;-62
2021/03/27 12:36:35;;;;;;;4.72;1.80;;;;;;;;;;5101022;28;20434;-62
2021/03/27 12:39:09;;;;;;;5.45;1.75;;;;;;;;;;5098987;28;20188;-61
2021/03/27 12:41:38;;;;;;;5.05;1.65;;;;;;;;;;5098876;28;20218;-61
2021/03/27 12:44:08;;;;;;;4.97;1.73;;;;;;;;;;5098704;28;20227;-61
2021/03/27 12:46:45;;;;;;;2.35;1.52;;;;;;;;;;5097384;28;20216;-60
2021/03/27 12:49:24;;;;;;;2.97;1.65;;;;;;;;;;5098158;28;20236;-62
2021/03/27 12:51:55;;;;;;;1.52;1.00;;;;;;;;;;5097773;28;20189;-62
2021/03/27 12:54:34;;;;;;;2.45;1.30;;;;;;;;;;5099077;28;20221;-63
2021/03/27 12:57:10;;;;;;;4.47;1.42;;;;;;;;;;5098453;28;20196;-62
2021/03/27 12:59:45;;;;;;;1.02;0.93;;;;;;;;;;5096920;28;20192;-62
2021/03/27 13:02:29;;;;;;;1.27;0.80;;;;;;;;;;5096596;28;20195;-64
2021/03/27 13:05:06;;;;;;;2.10;0.80;;;;;;;;;;5086127;28;20225;-63
2021/03/27 13:07:35;;;;;;;1.55;1.00;;;;;;;;;;5096070;28;20216;-62
2021/03/27 13:10:10;;;;;;;1.77;1.00;;;;;;;;;;5096172;28;20200;-63
2021/03/27 13:12:41;;;;;;;0.75;0.57;;;;;;;;;;5096464;28;20193;-61
2021/03/27 13:15:18;;;;;;;1.70;0.90;;;;;;;;;;5096062;28;20227;-62
2021/03/27 13:17:49;;;;;;;1.92;0.90;;;;;;;;;;5096193;28;20181;-60
2021/03/27 13:20:22;;;;;;;2.80;1.42;;;;;;;;;;5096328;28;20188;-63
2021/03/27 13:22:53;;;;;;;1.80;1.27;;;;;;;;;;5097395;28;20189;-62
2021/03/27 13:25:22;;;;;;;2.25;1.20;;;;;;;;;;5096280;28;20224;-63
2021/03/27 13:27:53;;;;;;;3.53;1.40;;;;;;;;;;5096168;28;20217;-62
2021/03/27 13:30:28;;;;;;;6.68;1.67;;;;;;;;;;5096445;28;20181;-63
2021/03/27 13:33:02;;;;;;;2.85;1.50;;;;;;;;;;5095783;28;20224;-62
2021/03/27 13:35:33;;;;;;;3.88;2.30;;;;;;;;;;5095881;28;20257;-63
2021/03/27 13:38:03;;;;;;;5.25;2.10;;;;;;;;;;5096292;28;20180;-63
2021/03/27 13:40:32;;;;;;;4.90;2.58;;;;;;;;;;5095345;28;20609;-62
2021/03/27 13:43:05;;;;;;;2.72;1.80;;;;;;;;;;5095816;28;20211;-63
2021/03/27 13:45:35;;;;;;;5.63;1.42;;;;;;;;;;5095728;28;20709;-62
2021/03/27 13:48:06;;;;;;;7.25;2.25;;;;;;;;;;5096077;28;20208;-61
2021/03/27 13:50:40;;;;;;;5.70;2.05;;;;;;;;;;5097183;28;20189;-62
2021/03/27 13:53:15;;;;;;;2.50;1.52;;;;;;;;;;5098048;28;20530;-62
2021/03/27 13:55:51;;;;;;;3.72;1.98;;;;;;;;;;5097876;28;20276;-64
2021/03/27 13:58:21;;;;;;;5.95;2.10;;;;;;;;;;5098295;28;20199;-61
2021/03/27 14:00:53;;;;;;;2.72;1.73;;;;;;;;;;5096087;28;20184;-62
2021/03/27 14:03:24;;;;;;;2.75;1.70;;;;;;;;;;5095843;28;20532;-62
2021/03/27 14:06:02;;;;;;;2.90;1.88;;;;;;;;;;5095285;28;20254;-62
2021/03/27 14:08:36;;;;;;;3.17;1.70;;;;;;;;;;5095274;28;20207;-62
2021/03/27 14:11:07;;;;;;;6.38;2.20;;;;;;;;;;5095239;28;20197;-61
2021/03/27 14:13:37;;;;;;;7.15;1.70;;;;;;;;;;5095903;28;20186;-61
2021/03/27 14:16:11;;;;;;;8.05;2.13;;;;;;;;;;5095068;28;20668;-62
2021/03/27 14:18:44;;;;;;;6.28;2.33;;;;;;;;;;5095404;28;20195;-62
2021/03/27 14:21:24;;;;;;;4.05;1.60;;;;;;;;;;5096140;28;20189;-61
2021/03/27 14:24:05;;;;;;;2.30;1.50;;;;;;;;;;5095682;28;20188;-62
2021/03/27 14:26:36;;;;;;;3.35;1.98;;;;;;;;;;5099652;28;20191;-63
2021/03/27 14:29:08;;;;;;;4.43;3.17;;;;;;;;;;5097503;28;20184;-63
2021/03/27 14:31:47;;;;;;;5.43;2.35;;;;;;;;;;5095127;28;20184;-63
2021/03/27 14:34:28;;;;;;;3.08;2.15;;;;;;;;;;5095828;28;20220;-62
2021/03/27 14:37:11;;;;;;;2.55;1.80;;;;;;;;;;5094667;28;20610;-62
2021/03/27 14:39:57;;;;;;;4.45;2.00;;;;;;;;;;5094750;28;20188;-62
2021/03/27 14:42:39;;;;;;;4.22;2.00;;;;;;;;;;5094562;28;20188;-62
2021/03/27 14:45:09;;;;;;;3.92;2.10;;;;;;;;;;5094622;28;20224;-63
2021/03/27 14:47:53;;;;;;;3.22;1.92;;;;;;;;;;5094485;28;20220;-63
2021/03/27 14:50:24;;;;;;;3.20;1.77;;;;;;;;;;5083747;28;20207;-61
2021/03/27 14:52:59;;;;;;;4.05;1.80;;;;;;;;;;5094511;28;20193;-62
2021/03/27 14:55:30;;;;;;;4.47;1.95;;;;;;;;;;5094608;28;20227;-63
2021/03/27 14:58:02;;;;;;;5.78;2.10;;;;;;;;;;5094980;28;20200;-62
2021/03/27 15:00:50;;;;;;;6.05;2.40;;;;;;;;;;5094742;28;20189;-61
2021/03/27 15:03:21;;;;;;;5.57;1.95;;;;;;;;;;5094931;28;20196;-63
2021/03/27 15:05:50;;;;;;;6.05;2.60;;;;;;;;;;5095001;28;20231;-62
2021/03/27 15:08:23;;;;;;;2.65;1.65;;;;;;;;;;5095298;28;20249;-62
2021/03/27 15:10:56;;;;;;;6.10;2.20;;;;;;;;;;5095395;28;20188;-63
2021/03/27 15:13:31;;;;;;;3.13;2.20;;;;;;;;;;5094728;28;20203;-62
2021/03/27 15:16:08;;;;;;;5.30;1.42;;;;;;;;;;5094035;28;20227;-62
2021/03/27 15:18:38;;;;;;;4.57;2.00;;;;;;;;;;5094435;28;20636;-63
2021/03/27 15:21:06;;;;;;;1.90;1.50;;;;;;;;;;5093962;28;20193;-63
2021/03/27 15:23:38;;;;;;;2.47;1.10;;;;;;;;;;5093639;28;20664;-63
2021/03/27 15:29:03;;;;;;;1.67;1.55;;;;;;;;;;5093824;28;20631;-63
2021/03/27 15:31:33;;;;;;;6.65;1.77;;;;;;;;;;5093657;28;20602;-64
2021/03/27 15:34:04;;;;;;;1.83;1.52;;;;;;;;;;5093524;28;20226;-64
2021/03/27 15:36:35;;;;;;;1.15;1.05;;;;;;;;;;5093560;28;20769;-63